Time;durP1;ratioP1;P1;durP2;ratioP2;P2;SDS_P1;SDS_P2;PMS_P1;PMS_P2;Temp;Humidity;BMP_temperature;BMP_pressure;BME280_temperature;BME280_humidity;BME280_pressure;Samples;Min_cycle;Max_cycle;Signal;HPM_P1;HPM_P2
2022/05/12 17:13:59;;;;;;;1.40;1.30;;;26.00;57.70;;;;;;5074061;28;20483;-92
2022/05/12 17:16:28;;;;;;;1.10;1.00;;;26.00;57.70;;;;;;5057528;28;20792;-87
2022/05/12 17:18:55;;;;;;;1.10;1.00;;;26.00;57.80;;;;;;5057441;28;20462;-90
2022/05/12 17:21:22;;;;;;;1.30;1.20;;;26.00;57.70;;;;;;5057450;28;20442;-93
2022/05/12 17:23:49;;;;;;;1.17;0.90;;;26.10;57.70;;;;;;5039425;28;20445;-89
2022/05/12 17:26:16;;;;;;;1.13;1.03;;;26.10;57.70;;;;;;5057325;28;20440;-92
2022/05/12 17:28:43;;;;;;;1.10;1.00;;;26.10;57.60;;;;;;5057382;28;20453;-93
2022/05/12 17:31:10;;;;;;;1.00;0.80;;;26.10;57.60;;;;;;5057246;28;20469;-88
2022/05/12 17:33:38;;;;;;;1.43;1.00;;;26.10;57.50;;;;;;5057116;28;20448;-92
2022/05/12 17:36:05;;;;;;;1.10;1.00;;;26.10;57.60;;;;;;5056872;28;20449;-83
2022/05/12 17:38:33;;;;;;;1.10;1.00;;;26.10;57.50;;;;;;5056977;28;20448;-83
2022/05/12 17:41:01;;;;;;;1.60;1.50;;;26.10;57.50;;;;;;5056681;28;20433;-92
2022/05/12 17:43:29;;;;;;;1.13;1.03;;;26.10;57.50;;;;;;5056881;28;20483;-93
2022/05/12 17:45:58;;;;;;;1.70;1.27;;;26.10;57.50;;;;;;5056878;28;20488;-83
2022/05/12 17:48:27;;;;;;;1.10;1.00;;;26.10;57.50;;;;;;5057068;28;20837;-83
2022/05/12 17:50:55;;;;;;;1.30;1.07;;;26.10;57.50;;;;;;5039046;28;20441;-83
2022/05/12 17:53:22;;;;;;;1.00;0.83;;;26.10;57.50;;;;;;5056888;28;20450;-82
2022/05/12 17:55:51;;;;;;;1.20;1.10;;;26.10;58.00;;;;;;5056399;28;20533;-83
2022/05/12 17:58:21;;;;;;;1.13;1.03;;;26.10;57.40;;;;;;5056563;28;20448;-83
2022/05/12 18:00:49;;;;;;;1.10;1.00;;;26.10;57.40;;;;;;5056460;28;20452;-89
2022/05/12 18:03:16;;;;;;;1.30;1.20;;;26.20;57.50;;;;;;5056445;28;20954;-83
2022/05/12 18:05:45;;;;;;;1.13;1.00;;;26.10;57.40;;;;;;5056425;28;20481;-92
2022/05/12 18:08:15;;;;;;;1.20;1.10;;;26.10;57.40;;;;;;5056293;28;20449;-83
2022/05/12 18:10:45;;;;;;;1.00;0.90;;;26.10;57.40;;;;;;5056409;28;20441;-92
2022/05/12 18:13:12;;;;;;;1.20;1.10;;;26.10;57.40;;;;;;5056228;28;20438;-83
2022/05/12 18:15:42;;;;;;;1.10;0.90;;;26.10;57.40;;;;;;5072157;28;20476;-83
2022/05/12 18:18:10;;;;;;;1.37;1.27;;;26.10;57.30;;;;;;5076084;28;20950;-82
2022/05/12 18:20:38;;;;;;;2.60;1.40;;;26.10;57.30;;;;;;5074311;28;20429;-87
2022/05/12 18:23:05;;;;;;;1.70;1.60;;;26.10;56.60;;;;;;5076482;28;20483;-89
2022/05/12 18:25:34;;;;;;;2.70;1.10;;;26.10;56.20;;;;;;5075813;28;20484;-89
2022/05/12 18:28:02;;;;;;;1.60;1.43;;;26.00;56.00;;;;;;5075931;28;20495;-90
2022/05/12 18:30:29;;;;;;;1.90;1.50;;;26.00;55.80;;;;;;5075856;28;20440;-89
2022/05/12 18:32:59;;;;;;;1.50;1.40;;;26.00;55.70;;;;;;5075973;28;20441;-90
2022/05/12 18:35:26;;;;;;;1.27;1.17;;;26.00;55.70;;;;;;5075880;28;20449;-89
2022/05/12 18:37:53;;;;;;;1.30;1.20;;;26.00;55.70;;;;;;5075770;28;20440;-89
2022/05/12 18:40:21;;;;;;;1.93;1.30;;;26.00;55.70;;;;;;5075844;28;20441;-90
2022/05/12 18:42:49;;;;;;;1.40;1.20;;;25.90;55.70;;;;;;5075554;28;20495;-90
2022/05/12 18:45:18;;;;;;;1.60;1.27;;;25.90;55.70;;;;;;5075929;28;20485;-90
2022/05/12 18:47:45;;;;;;;1.67;1.10;;;25.90;55.80;;;;;;5075881;28;20494;-89
2022/05/12 18:50:14;;;;;;;3.50;1.50;;;25.90;55.70;;;;;;5075900;28;20445;-89
2022/05/12 18:52:41;;;;;;;1.50;1.40;;;25.90;55.80;;;;;;5075586;28;20769;-89
2022/05/12 18:55:13;;;;;;;2.03;1.30;;;25.90;55.80;;;;;;5075499;28;20796;-89
2022/05/12 18:57:40;;;;;;;1.73;1.37;;;25.90;55.80;;;;;;5075401;28;20445;-89
2022/05/12 19:00:11;;;;;;;1.40;1.30;;;25.80;55.90;;;;;;5075190;28;20441;-89
2022/05/12 19:02:38;;;;;;;1.30;1.20;;;25.80;55.90;;;;;;5075736;28;20879;-90
2022/05/12 19:05:07;;;;;;;1.50;1.20;;;25.80;55.90;;;;;;5075214;28;20473;-89
2022/05/12 19:07:34;;;;;;;1.30;1.20;;;25.80;55.90;;;;;;5075322;28;20948;-90
2022/05/12 19:10:01;;;;;;;2.03;1.30;;;25.80;56.00;;;;;;5075122;28;20440;-90
2022/05/12 19:12:29;;;;;;;1.93;1.20;;;25.80;55.90;;;;;;5075218;28;20441;-90
2022/05/12 19:14:58;;;;;;;1.57;1.20;;;25.80;56.00;;;;;;5074775;28;20472;-90
2022/05/12 19:17:27;;;;;;;1.37;1.27;;;25.80;56.00;;;;;;5074831;28;20441;-89
2022/05/12 19:19:55;;;;;;;1.93;1.20;;;25.80;56.00;;;;;;5074815;28;20468;-90
2022/05/12 19:22:22;;;;;;;3.13;1.50;;;25.80;56.00;;;;;;5074731;28;20503;-90
2022/05/12 19:24:49;;;;;;;1.40;1.30;;;25.80;56.00;;;;;;5074819;28;20476;-90
2022/05/12 19:27:16;;;;;;;1.50;1.40;;;25.80;56.00;;;;;;5074835;28;20531;-89
2022/05/12 19:29:44;;;;;;;1.80;1.23;;;25.80;56.10;;;;;;5074568;28;20445;-90
2022/05/12 19:32:11;;;;;;;1.50;1.27;;;25.80;56.10;;;;;;5074507;28;20441;-89
2022/05/12 19:34:39;;;;;;;1.40;1.30;;;25.60;55.90;;;;;;5074948;28;20928;-90
2022/05/12 19:37:06;;;;;;;1.17;1.07;;;25.70;56.00;;;;;;5074944;28;20808;-90
2022/05/12 19:39:33;;;;;;;1.23;1.03;;;25.70;56.00;;;;;;5074566;28;20533;-90
2022/05/12 19:42:00;;;;;;;1.40;1.30;;;25.70;56.00;;;;;;5074353;28;20503;-89
2022/05/12 19:44:27;;;;;;;1.40;1.30;;;25.70;56.00;;;;;;5074395;28;20443;-90
2022/05/12 19:46:54;;;;;;;1.77;1.47;;;25.70;56.00;;;;;;5074628;28;20448;-90
2022/05/12 19:49:21;;;;;;;1.47;1.10;;;25.80;56.00;;;;;;5074397;28;20457;-90
2022/05/12 19:51:50;;;;;;;1.57;1.40;;;25.60;56.00;;;;;;5074197;28;20447;-90
2022/05/12 19:54:17;;;;;;;1.60;1.30;;;25.70;56.10;;;;;;5074256;28;20456;-90
2022/05/12 19:56:45;;;;;;;1.60;1.50;;;25.70;56.00;;;;;;5074263;28;20447;-89
2022/05/12 19:59:11;;;;;;;2.70;1.73;;;25.70;56.60;;;;;;5074077;28;20928;-90
2022/05/12 20:01:40;;;;;;;1.60;1.30;;;25.70;56.00;;;;;;5074189;28;20475;-89
2022/05/12 20:04:09;;;;;;;1.40;1.30;;;25.70;56.10;;;;;;5073927;28;20441;-90
2022/05/12 20:06:37;;;;;;;2.00;1.50;;;25.70;56.10;;;;;;5074101;28;20481;-89
2022/05/12 20:09:06;;;;;;;1.80;1.67;;;25.70;56.10;;;;;;5074172;28;20449;-88
2022/05/12 20:11:33;;;;;;;1.67;1.57;;;25.70;56.10;;;;;;5073915;28;20455;-89
2022/05/12 20:14:00;;;;;;;2.07;1.40;;;25.70;56.00;;;;;;5073727;28;20436;-90
2022/05/12 20:16:27;;;;;;;1.57;1.47;;;25.70;56.00;;;;;;5073729;28;20532;-89
2022/05/12 20:18:53;;;;;;;1.60;1.50;;;25.70;56.00;;;;;;5073704;28;20457;-90
2022/05/12 20:21:20;;;;;;;1.47;1.37;;;25.70;56.00;;;;;;5073826;28;20448;-89
2022/05/12 20:23:47;;;;;;;1.40;1.30;;;25.70;56.10;;;;;;5073725;28;20448;-90
2022/05/12 20:26:15;;;;;;;1.47;1.37;;;25.70;56.10;;;;;;5073663;28;20484;-89
2022/05/12 20:28:42;;;;;;;2.10;1.20;;;25.70;56.10;;;;;;5073765;28;20441;-89
2022/05/12 20:31:09;;;;;;;1.40;1.30;;;25.70;56.00;;;;;;5073744;28;20437;-88
2022/05/12 20:33:36;;;;;;;1.70;1.60;;;25.70;55.90;;;;;;5073671;28;20450;-89
2022/05/12 20:36:03;;;;;;;1.50;1.40;;;25.70;56.00;;;;;;5073615;28;20787;-89
2022/05/12 20:38:30;;;;;;;2.10;1.80;;;25.70;56.00;;;;;;5073630;28;20939;-90
2022/05/12 20:40:58;;;;;;;1.50;1.40;;;25.70;56.00;;;;;;5073450;28;20440;-88
2022/05/12 20:43:26;;;;;;;2.53;1.70;;;25.70;56.10;;;;;;5072861;28;20548;-90
2022/05/12 20:46:06;;;;;;;1.50;1.40;;;25.70;56.00;;;;;;5073351;28;20526;-88
2022/05/12 20:48:37;;;;;;;1.30;1.20;;;25.70;56.00;;;;;;5073379;28;20492;-89
2022/05/12 20:51:04;;;;;;;1.50;1.37;;;25.60;56.00;;;;;;5073350;28;20444;-90
2022/05/12 20:53:31;;;;;;;1.40;1.30;;;25.70;56.10;;;;;;5073760;28;20440;-89
2022/05/12 20:56:02;;;;;;;2.23;1.50;;;25.60;56.00;;;;;;5073385;28;20475;-89
2022/05/12 20:58:30;;;;;;;1.67;1.53;;;25.60;56.00;;;;;;5073439;28;20444;-90
2022/05/12 21:00:58;;;;;;;1.67;1.33;;;25.60;56.10;;;;;;5073364;28;20441;-89
2022/05/12 21:03:25;;;;;;;1.50;1.40;;;25.60;56.00;;;;;;5073404;28;20518;-89
2022/05/12 21:05:52;;;;;;;1.40;1.30;;;25.60;56.00;;;;;;5073335;28;21090;-89
2022/05/12 21:08:21;;;;;;;1.37;1.27;;;25.60;56.10;;;;;;5073170;28;20433;-90
2022/05/12 21:10:48;;;;;;;1.60;1.50;;;25.60;56.00;;;;;;5073167;28;20441;-89
2022/05/12 21:13:15;;;;;;;1.93;1.63;;;25.60;56.10;;;;;;5073245;28;20558;-89
2022/05/12 21:15:44;;;;;;;1.43;1.33;;;25.60;56.10;;;;;;5073174;28;20468;-90
2022/05/12 21:18:12;;;;;;;1.93;1.50;;;25.60;56.10;;;;;;5073079;28;20471;-90
2022/05/12 21:20:39;;;;;;;1.40;1.30;;;25.60;56.00;;;;;;5073196;28;20441;-89
2022/05/12 21:23:06;;;;;;;1.90;1.50;;;25.60;56.00;;;;;;5073204;28;20494;-89
2022/05/12 21:25:33;;;;;;;1.40;1.30;;;25.60;56.00;;;;;;5073334;28;20476;-90
2022/05/12 21:28:00;;;;;;;1.50;1.40;;;25.60;55.90;;;;;;5073152;28;20470;-88
2022/05/12 21:30:29;;;;;;;1.40;1.30;;;25.60;55.80;;;;;;5072933;28;20503;-89
2022/05/12 21:32:59;;;;;;;1.83;1.70;;;25.60;55.90;;;;;;5073413;28;20452;-89
2022/05/12 21:35:29;;;;;;;1.50;1.40;;;25.60;55.90;;;;;;5073354;28;20559;-89
2022/05/12 21:37:57;;;;;;;2.00;1.87;;;25.60;56.50;;;;;;5073199;28;20440;-89
2022/05/12 21:40:27;;;;;;;1.50;1.40;;;25.60;56.00;;;;;;5073108;28;20927;-90
2022/05/12 21:42:55;;;;;;;1.43;1.33;;;25.60;56.00;;;;;;5073146;28;20529;-90
2022/05/12 21:45:43;;;;;;;1.70;1.20;;;25.60;56.00;;;;;;5072853;28;20437;-90
2022/05/12 21:48:18;;;;;;;1.80;1.70;;;25.60;56.10;;;;;;5073322;28;20473;-89
2022/05/12 21:50:48;;;;;;;1.40;1.30;;;25.60;56.10;;;;;;5073081;28;20834;-89
2022/05/12 21:53:15;;;;;;;1.30;1.10;;;25.50;56.60;;;;;;5073219;28;20785;-89
2022/05/12 21:55:42;;;;;;;1.60;1.13;;;25.50;56.00;;;;;;5075578;28;20433;-90
2022/05/12 22:03:42;;;;;;;1.33;1.23;;;25.50;56.10;;;;;;5076500;28;20479;-89
2022/05/12 22:06:11;;;;;;;1.40;1.30;;;25.50;56.10;;;;;;5076226;28;20485;-90
2022/05/12 22:08:38;;;;;;;1.93;1.83;;;25.50;56.00;;;;;;5076186;28;20974;-90
2022/05/12 22:11:05;;;;;;;2.50;1.63;;;25.50;56.10;;;;;;5076355;28;20936;-89
2022/05/12 22:13:32;;;;;;;1.43;1.33;;;25.50;56.10;;;;;;5076566;28;20437;-89
2022/05/12 22:15:59;;;;;;;1.40;1.10;;;25.50;56.10;;;;;;5076093;28;20512;-89
2022/05/12 22:18:26;;;;;;;1.40;1.27;;;25.50;56.10;;;;;;5076121;28;20547;-90
2022/05/12 22:20:55;;;;;;;1.20;1.10;;;25.50;56.00;;;;;;5076162;28;20444;-90
2022/05/12 22:23:22;;;;;;;1.50;1.40;;;25.50;56.10;;;;;;5076129;28;20452;-89
2022/05/12 22:25:48;;;;;;;1.53;1.43;;;25.50;56.00;;;;;;5075854;28;20842;-90
2022/05/12 22:28:15;;;;;;;1.30;1.00;;;25.50;56.00;;;;;;5076198;28;20440;-90
2022/05/12 22:30:42;;;;;;;1.90;1.37;;;25.50;56.10;;;;;;5075843;28;20788;-89
2022/05/12 22:33:09;;;;;;;1.40;1.30;;;25.50;56.20;;;;;;5075804;28;20527;-89
2022/05/12 22:35:37;;;;;;;1.43;1.30;;;25.50;56.20;;;;;;5075764;28;20469;-89
2022/05/12 22:38:06;;;;;;;1.40;1.10;;;25.50;56.30;;;;;;5075867;28;20453;-89
2022/05/12 22:40:34;;;;;;;1.40;1.30;;;25.50;56.20;;;;;;5075568;28;20449;-89
2022/05/12 22:43:02;;;;;;;1.33;1.23;;;25.50;56.20;;;;;;5075735;28;20436;-89
2022/05/12 22:45:29;;;;;;;1.50;1.20;;;25.50;56.20;;;;;;5075611;28;20491;-89
2022/05/12 22:47:56;;;;;;;1.43;1.33;;;25.50;56.20;;;;;;5075479;28;20491;-89
2022/05/12 22:50:24;;;;;;;1.63;1.53;;;25.50;56.20;;;;;;5075490;28;20445;-90
2022/05/12 22:52:51;;;;;;;1.20;1.10;;;25.50;56.30;;;;;;5075472;28;20796;-89
2022/05/12 22:55:20;;;;;;;2.13;1.30;;;25.50;56.30;;;;;;5075418;28;20491;-89
2022/05/12 22:57:47;;;;;;;1.20;1.10;;;25.50;56.90;;;;;;5075658;28;20477;-88
2022/05/12 23:00:15;;;;;;;1.30;1.20;;;25.50;56.30;;;;;;5075232;28;20445;-88
2022/05/12 23:02:41;;;;;;;1.60;1.50;;;25.50;56.30;;;;;;5075315;28;20451;-89
2022/05/12 23:05:08;;;;;;;1.50;1.30;;;25.50;56.30;;;;;;5075398;28;20437;-89
2022/05/12 23:07:35;;;;;;;1.23;1.13;;;25.50;56.30;;;;;;5074546;28;20480;-89
2022/05/12 23:10:02;;;;;;;1.47;1.37;;;25.50;56.30;;;;;;5075066;28;20977;-89
2022/05/12 23:12:31;;;;;;;1.30;1.10;;;25.50;56.30;;;;;;5075146;28;20442;-89
2022/05/12 23:14:57;;;;;;;1.70;1.27;;;25.50;56.40;;;;;;5074648;28;20473;-89
2022/05/12 23:17:24;;;;;;;1.70;1.17;;;25.50;56.90;;;;;;5075112;28;20555;-90
2022/05/12 23:22:37;;;;;;;1.17;1.07;;;25.50;56.40;;;;;;5074917;28;20506;-89
2022/05/12 23:25:05;;;;;;;1.50;1.40;;;25.50;56.40;;;;;;5074919;28;20444;-89
2022/05/12 23:27:34;;;;;;;1.10;1.00;;;25.50;56.40;;;;;;5074708;28;20484;-90
2022/05/12 23:30:01;;;;;;;1.20;1.10;;;25.50;56.40;;;;;;5075011;28;21244;-89
2022/05/12 23:32:28;;;;;;;1.50;1.40;;;25.50;56.40;;;;;;5074848;28;20441;-89
2022/05/12 23:34:55;;;;;;;1.40;1.30;;;25.50;56.40;;;;;;5074703;28;20936;-89
2022/05/12 23:37:21;;;;;;;1.30;1.20;;;25.50;56.40;;;;;;5075146;28;20443;-89
2022/05/12 23:39:48;;;;;;;1.40;1.07;;;25.50;56.30;;;;;;5074317;28;20449;-89
2022/05/12 23:42:15;;;;;;;1.40;1.30;;;25.50;56.30;;;;;;5074571;28;20463;-89
2022/05/12 23:44:43;;;;;;;1.40;1.30;;;25.40;56.20;;;;;;5074387;28;20441;-89
2022/05/12 23:47:10;;;;;;;1.30;1.10;;;25.40;56.30;;;;;;5074252;28;20516;-89
2022/05/12 23:49:37;;;;;;;1.23;1.13;;;25.40;56.40;;;;;;5074229;28;20461;-89
2022/05/12 23:52:07;;;;;;;1.40;1.10;;;25.40;56.80;;;;;;5074483;28;20445;-88
2022/05/12 23:54:34;;;;;;;1.20;1.10;;;25.50;56.40;;;;;;5074144;28;20847;-88
2022/05/12 23:57:01;;;;;;;1.10;1.00;;;25.40;56.40;;;;;;5074122;28;20439;-89
2022/05/12 23:59:28;;;;;;;1.50;1.10;;;25.40;56.40;;;;;;5074085;28;20445;-89
